Lanesboro, MN

6:03 PM CDT on October 30, 2014 (GMT -0500)
Eagle Bluff ELC | Change Station
CLOSE
Current Station
Personal Weather Station
Location: Lanesboro, MN
Elevation: 1003 ft
Nearby Weather Stations

Elev 1003 ft 43.76 °N, 92.00 °W | Updated 3 minutes ago

Overcast
Overcast
45.5 °F
Feels Like 46 °F
N
0.0
Wind Variable Wind from NNW
Gusts 4.5 mph

Today
High -- | Low -- °F
--% Chance of Precip.
Yesterday
High -- | Low -- °F
Precip. -- in
7:41 AM 6:01 PM
Waxing Crescent, 48% visible
Pressure 30.10 in
Visibility 10.0 miles
Clouds Overcast 4300 ft
Windchill 46 °F
Dew Point 22 °F
Humidity 38%
Rainfall 0.00 in
Snow Depth Not available.
UV 0 out of 12
Pollen .80 out of 12
Air Quality Not available.
Flu Activity Not available.
METAR KFKA 302255Z AUTO 33005KT 10SM OVC043 07/03 A3010 RMK AO2 T00660026

More Conditions Fewer Conditions

Pressure 30.10 in
Visibility 10.0 miles
Clouds Overcast 4300 ft
Windchill 46 °F
Dew Point 22 °F
Humidity 38%
Rainfall 0.00 in
Snow Depth Not available.
UV 0 out of 12
Pollen .80 out of 12
Air Quality Not available.
Flu Activity Not available.
METAR KFKA 302255Z AUTO 33005KT 10SM OVC043 07/03 A3010 RMK AO2 T00660026

More Conditions Fewer Conditions

10-Day Weather Forecast

Almanac

Astronomy

Oct. 30, 2014 Rise Set
Actual Time
Civil Twilight
Nautical Twilight
Astronomical Twilight
Moon
Length of Visible Light
Length of Day
Tomorrow will be .
, % of the Moon is Illuminated

Today's Extremes

State Highs State Lows

Community

WunderPhotos

Upload Photos

1,766,491 photos uploaded!

WunderBlogs® & News

Nearby

Air Quality

  Air Quality AQ Index Pollutant
Not available.

Snow Depth

Station Depth Elevation

Earthquake Activity

City Distance Mag. Time & Date
Minimum magnitude displayed is 2.5.

Coastal Water Temperatures

Place Temperature

Nearby Weather Stations